Time;durP1;ratioP1;P1;durP2;ratioP2;P2;SDS_P1;SDS_P2;PMS_P1;PMS_P2;Temp;Humidity;BMP_temperature;BMP_pressure;BME280_temperature;BME280_humidity;BME280_pressure;Samples;Min_cycle;Max_cycle;Signal;HPM_P1;HPM_P2
2023/04/03 00:02:01;;;;;;;;;;;3.00;99.90;;;;;;5051147;28;19933;-36
2023/04/03 00:04:28;;;;;;;;;;;2.90;99.90;;;;;;5037571;28;19924;-36
2023/04/03 00:06:54;;;;;;;;;;;2.90;99.90;;;;;;5054504;28;19978;-36
2023/04/03 00:09:21;;;;;;;;;;;2.90;99.90;;;;;;5035311;28;19971;-36
2023/04/03 00:11:48;;;;;;;;;;;2.80;99.90;;;;;;5036238;28;19929;-36
2023/04/03 00:14:14;;;;;;;;;;;2.80;99.90;;;;;;5035239;28;19975;-36
2023/04/03 00:16:41;;;;;;;;;;;2.80;99.90;;;;;;5054338;28;20414;-36
2023/04/03 00:19:11;;;;;;;;;;;2.80;99.90;;;;;;5042763;28;19996;-35
2023/04/03 00:21:38;;;;;;;;;;;2.70;99.90;;;;;;5034679;28;19933;-35
2023/04/03 00:24:05;;;;;;;;;;;2.70;99.90;;;;;;5034768;28;19965;-36
2023/04/03 00:26:31;;;;;;;;;;;2.70;99.90;;;;;;5034814;28;19925;-36
2023/04/03 00:28:58;;;;;;;;;;;2.60;99.90;;;;;;5035206;28;19971;-36
2023/04/03 00:31:25;;;;;;;;;;;2.60;99.90;;;;;;5036064;28;20274;-37
2023/04/03 00:33:57;;;;;;;;;;;2.60;99.90;;;;;;5034644;28;19948;-36
2023/04/03 00:36:25;;;;;;;;;;;2.60;99.90;;;;;;5021200;28;19992;-36
2023/04/03 00:38:52;;;;;;;;;;;2.60;99.90;;;;;;5022758;28;19971;-36
2023/04/03 00:41:18;;;;;;;;;;;2.50;99.90;;;;;;5035677;28;19925;-36
2023/04/03 00:43:45;;;;;;;;;;;2.50;99.90;;;;;;5034665;28;19925;-36
2023/04/03 00:46:12;;;;;;;;;;;2.50;99.90;;;;;;5035796;28;19925;-36
2023/04/03 00:48:39;;;;;;;;;;;2.50;99.90;;;;;;5034180;28;19926;-36
2023/04/03 00:51:07;;;;;;;;;;;2.50;99.90;;;;;;5034305;28;19931;-36
2023/04/03 00:53:36;;;;;;;;;;;2.50;99.90;;;;;;5030300;28;20016;-36
2023/04/03 00:56:03;;;;;;;;;;;2.40;99.90;;;;;;5035496;28;19971;-36
2023/04/03 00:58:32;;;;;;;;;;;2.40;99.90;;;;;;5035621;28;19925;-36
2023/04/03 01:00:59;;;;;;;;;;;2.40;99.90;;;;;;5033586;28;20343;-36
2023/04/03 01:03:26;;;;;;;;;;;2.40;99.90;;;;;;5035452;28;19956;-36
2023/04/03 01:05:52;;;;;;;;;;;2.30;99.90;;;;;;5035167;28;19926;-37
2023/04/03 01:08:19;;;;;;;;;;;2.30;99.90;;;;;;5031748;28;19925;-36
2023/04/03 01:10:47;;;;;;;;;;;2.30;99.90;;;;;;5032015;28;19934;-35
2023/04/03 01:13:22;;;;;;;;;;;2.20;99.90;;;;;;5033734;28;19925;-36
2023/04/03 01:15:48;;;;;;;;;;;2.20;99.90;;;;;;5040485;28;19933;-37
2023/04/03 01:18:15;;;;;;;;;;;2.20;99.90;;;;;;5034865;28;19925;-36
2023/04/03 01:20:57;;;;;;;;;;;2.20;99.90;;;;;;5034058;28;19987;-36
2023/04/03 01:23:26;;;;;;;;;;;2.20;99.90;;;;;;5034200;28;19972;-36
2023/04/03 01:25:54;;;;;;;;;;;2.20;99.90;;;;;;5034033;28;19928;-36
2023/04/03 01:28:22;;;;;;;;;;;2.10;99.90;;;;;;5028191;28;20384;-37
2023/04/03 01:30:49;;;;;;;;;;;2.10;99.90;;;;;;5033814;28;20457;-36
2023/04/03 01:33:17;;;;;;;;;;;2.10;99.90;;;;;;5031455;28;19965;-36
2023/04/03 01:35:44;;;;;;;;;;;2.10;99.90;;;;;;5023774;28;19971;-35
2023/04/03 01:38:11;;;;;;;;;;;2.00;99.90;;;;;;5034567;28;19929;-36
2023/04/03 01:40:38;;;;;;;;;;;2.00;99.90;;;;;;5032805;28;19925;-36
2023/04/03 01:43:05;;;;;;;;;;;2.00;99.90;;;;;;5032963;28;20373;-36
2023/04/03 01:45:31;;;;;;;;;;;2.00;99.90;;;;;;5034395;28;20371;-36
2023/04/03 01:47:58;;;;;;;;;;;2.00;99.90;;;;;;5033853;28;19925;-35
2023/04/03 01:50:26;;;;;;;;;;;2.00;99.90;;;;;;5032731;28;19925;-35
2023/04/03 01:52:53;;;;;;;;;;;2.00;99.90;;;;;;5033188;28;19955;-36
2023/04/03 01:55:19;;;;;;;;;;;1.90;99.90;;;;;;5033204;28;20301;-36
2023/04/03 01:57:46;;;;;;;;;;;1.90;99.90;;;;;;5052624;28;19979;-35
2023/04/03 02:00:13;;;;;;;;;;;1.90;99.90;;;;;;5035696;28;19925;-36
2023/04/03 02:02:40;;;;;;;;;;;1.90;99.90;;;;;;5034069;28;20281;-36
2023/04/03 02:05:07;;;;;;;;;;;1.80;99.90;;;;;;5032374;28;19925;-36
2023/04/03 02:07:35;;;;;;;;;;;1.80;99.90;;;;;;5038949;28;20391;-36
2023/04/03 02:10:02;;;;;;;;;;;1.90;99.90;;;;;;5035753;28;19932;-36
2023/04/03 02:12:28;;;;;;;;;;;1.90;99.90;;;;;;5033985;28;19929;-36
2023/04/03 02:14:55;;;;;;;;;;;1.80;99.90;;;;;;5035406;28;19936;-36
2023/04/03 02:17:22;;;;;;;;;;;1.80;99.90;;;;;;5052775;28;19936;-36
2023/04/03 02:19:48;;;;;;;;;;;1.90;99.90;;;;;;5052015;28;20446;-36
2023/04/03 02:22:15;;;;;;;;;;;1.80;99.90;;;;;;5052329;28;20327;-36
2023/04/03 02:24:43;;;;;;;;;;;1.80;99.90;;;;;;5053710;28;19969;-36
2023/04/03 02:27:10;;;;;;;;;;;1.70;99.90;;;;;;5053173;28;20372;-36
2023/04/03 02:29:36;;;;;;;;;;;1.70;99.90;;;;;;5036124;28;19943;-36
2023/04/03 02:32:03;;;;;;;;;;;1.70;99.90;;;;;;5053265;28;20375;-36
2023/04/03 02:34:29;;;;;;;;;;;1.70;99.90;;;;;;5052154;28;20002;-36
2023/04/03 02:36:56;;;;;;;;;;;1.70;99.90;;;;;;5033964;28;19932;-36
2023/04/03 02:39:23;;;;;;;;;;;1.70;99.90;;;;;;5051179;28;19968;-36
2023/04/03 02:41:51;;;;;;;;;;;1.70;99.90;;;;;;5053225;28;19974;-36
2023/04/03 02:44:18;;;;;;;;;;;1.60;99.90;;;;;;5033259;28;19925;-37
2023/04/03 02:46:45;;;;;;;;;;;1.60;99.90;;;;;;5038217;28;19925;-36
2023/04/03 02:49:11;;;;;;;;;;;1.60;99.90;;;;;;5035748;28;19929;-37
2023/04/03 02:51:38;;;;;;;;;;;1.60;99.90;;;;;;5035037;28;19932;-36
2023/04/03 02:54:05;;;;;;;;;;;1.60;99.90;;;;;;5035411;28;19979;-37
2023/04/03 02:56:31;;;;;;;;;;;1.60;99.90;;;;;;5044688;28;19928;-37
2023/04/03 02:58:59;;;;;;;;;;;1.50;99.90;;;;;;5037469;28;19925;-37
2023/04/03 03:01:28;;;;;;;;;;;1.50;99.90;;;;;;5033965;28;19968;-37
2023/04/03 03:03:54;;;;;;;;;;;1.50;99.90;;;;;;5053145;28;19955;-36
2023/04/03 03:06:21;;;;;;;;;;;1.50;99.90;;;;;;5052631;28;19936;-36
2023/04/03 03:08:48;;;;;;;;;;;1.50;99.90;;;;;;5033490;28;19960;-37
2023/04/03 03:11:14;;;;;;;;;;;1.40;99.90;;;;;;5052137;28;19924;-36
2023/04/03 03:13:41;;;;;;;;;;;1.50;99.90;;;;;;5052420;28;20153;-36
2023/04/03 03:16:09;;;;;;;;;;;1.50;99.90;;;;;;5052378;28;19925;-36
2023/04/03 03:18:36;;;;;;;;;;;1.40;99.90;;;;;;5035178;28;20018;-36
2023/04/03 03:21:02;;;;;;;;;;;1.30;99.90;;;;;;5032732;28;20340;-36
2023/04/03 03:23:29;;;;;;;;;;;1.40;99.90;;;;;;5034823;28;19974;-36
2023/04/03 03:25:56;;;;;;;;;;;1.30;99.90;;;;;;5049909;28;20295;-38
2023/04/03 03:28:22;;;;;;;;;;;1.30;99.90;;;;;;5050603;28;20429;-36
2023/04/03 03:30:49;;;;;;;;;;;1.30;99.90;;;;;;5052600;28;19925;-36
2023/04/03 03:33:18;;;;;;;;;;;1.20;99.90;;;;;;5051646;28;20364;-36
2023/04/03 03:35:44;;;;;;;;;;;1.20;99.90;;;;;;5034872;28;20299;-37
2023/04/03 03:38:11;;;;;;;;;;;1.10;99.90;;;;;;5033637;28;20543;-37
2023/04/03 03:40:38;;;;;;;;;;;1.10;99.90;;;;;;5048729;28;19933;-37
2023/04/03 03:43:04;;;;;;;;;;;1.10;99.90;;;;;;5049155;28;19980;-36
2023/04/03 03:45:31;;;;;;;;;;;1.00;99.90;;;;;;5048228;28;19944;-36
2023/04/03 03:47:58;;;;;;;;;;;1.00;99.90;;;;;;5050680;28;19928;-36
2023/04/03 03:50:26;;;;;;;;;;;1.00;99.90;;;;;;5051812;28;19928;-37
2023/04/03 03:52:53;;;;;;;;;;;0.90;99.90;;;;;;5052285;28;19979;-36
2023/04/03 03:55:20;;;;;;;;;;;0.90;99.90;;;;;;5052161;28;19970;-36
2023/04/03 03:57:46;;;;;;;;;;;0.90;99.90;;;;;;5054090;28;19928;-36
2023/04/03 04:00:13;;;;;;;;;;;0.90;99.90;;;;;;5057430;28;20335;-36
2023/04/03 04:02:40;;;;;;;;;;;0.90;99.90;;;;;;5052341;28;19929;-36
2023/04/03 04:05:07;;;;;;;;;;;0.90;99.90;;;;;;5032205;28;19924;-36
2023/04/03 04:07:35;;;;;;;;;;;0.80;99.90;;;;;;5050163;28;20253;-37
2023/04/03 04:10:02;;;;;;;;;;;0.80;99.90;;;;;;5060842;28;19929;-36
2023/04/03 04:12:29;;;;;;;;;;;0.70;99.90;;;;;;5051865;28;20353;-36
2023/04/03 04:14:55;;;;;;;;;;;0.70;99.90;;;;;;5051846;28;19974;-37
2023/04/03 04:17:22;;;;;;;;;;;0.70;99.90;;;;;;5051047;28;19929;-37
2023/04/03 04:19:49;;;;;;;;;;;0.70;99.90;;;;;;5051711;28;19924;-37
2023/04/03 04:22:15;;;;;;;;;;;0.70;99.90;;;;;;5048911;28;19925;-37
2023/04/03 04:24:43;;;;;;;;;;;0.60;99.90;;;;;;5051244;28;19974;-36
2023/04/03 04:27:10;;;;;;;;;;;0.60;99.90;;;;;;5050458;28;20364;-37
2023/04/03 04:29:37;;;;;;;;;;;0.60;99.90;;;;;;5051400;28;20372;-37
2023/04/03 04:32:03;;;;;;;;;;;0.60;99.90;;;;;;5034410;28;20247;-37
2023/04/03 04:34:30;;;;;;;;;;;0.60;99.90;;;;;;5032939;28;19978;-37
2023/04/03 04:36:57;;;;;;;;;;;0.50;99.90;;;;;;5034084;28;19968;-37
2023/04/03 04:39:24;;;;;;;;;;;0.50;99.90;;;;;;5033768;28;20348;-36
2023/04/03 04:41:52;;;;;;;;;;;0.50;99.90;;;;;;5033778;28;19925;-36
2023/04/03 04:44:19;;;;;;;;;;;0.40;99.90;;;;;;5033813;28;19925;-37
2023/04/03 04:46:46;;;;;;;;;;;0.40;99.90;;;;;;5031573;28;19933;-36
2023/04/03 04:49:13;;;;;;;;;;;0.40;99.90;;;;;;5050800;28;19929;-36
2023/04/03 04:51:39;;;;;;;;;;;0.40;99.90;;;;;;5032597;28;19974;-36
2023/04/03 04:54:06;;;;;;;;;;;0.40;99.90;;;;;;5032252;28;19925;-36
2023/04/03 04:56:33;;;;;;;;;;;0.40;99.90;;;;;;5061372;28;20285;-36
2023/04/03 04:59:01;;;;;;;;;;;0.40;99.90;;;;;;5054425;28;19994;-35
2023/04/03 05:01:28;;;;;;;;;;;0.40;99.90;;;;;;5034920;28;19924;-36
2023/04/03 05:03:55;;;;;;;;;;;0.30;99.90;;;;;;5054499;28;19925;-36
2023/04/03 05:06:22;;;;;;;;;;;0.30;99.90;;;;;;5034179;28;19987;-36
2023/04/03 05:08:48;;;;;;;;;;;0.30;99.90;;;;;;5034518;28;19933;-36
2023/04/03 05:11:15;;;;;;;;;;;0.30;99.90;;;;;;5051368;28;19932;-36
2023/04/03 05:13:42;;;;;;;;;;;0.20;99.90;;;;;;5031104;28;20019;-35
2023/04/03 05:16:11;;;;;;;;;;;0.20;99.90;;;;;;5047529;28;19979;-36
2023/04/03 05:18:37;;;;;;;;;;;0.20;99.90;;;;;;5033442;28;19932;-36
2023/04/03 05:21:04;;;;;;;;;;;0.20;99.90;;;;;;5052377;28;19928;-36
2023/04/03 05:23:31;;;;;;;;;;;0.20;99.90;;;;;;5052470;28;19928;-36
2023/04/03 05:25:58;;;;;;;;;;;0.20;99.90;;;;;;5032971;28;19982;-36
2023/04/03 05:28:24;;;;;;;;;;;0.30;99.90;;;;;;5048112;28;20356;-37
2023/04/03 05:30:54;;;;;;;;;;;0.20;99.90;;;;;;5050621;28;20335;-36
2023/04/03 05:33:22;;;;;;;;;;;0.20;99.90;;;;;;5033945;28;19933;-36
2023/04/03 05:35:48;;;;;;;;;;;0.20;99.90;;;;;;5028583;28;19929;-36
2023/04/03 05:38:16;;;;;;;;;;;0.20;99.90;;;;;;5026308;28;19925;-36
2023/04/03 05:40:42;;;;;;;;;;;0.20;99.90;;;;;;5031365;28;20051;-36
2023/04/03 05:43:10;;;;;;;;;;;0.20;99.90;;;;;;5042964;28;20368;-36
2023/04/03 05:45:36;;;;;;;;;;;0.20;99.90;;;;;;5050517;28;20031;-36
2023/04/03 05:48:03;;;;;;;;;;;0.20;99.90;;;;;;5047835;28;20434;-36
2023/04/03 05:50:31;;;;;;;;;;;0.30;99.90;;;;;;5033002;28;19925;-36
2023/04/03 05:52:58;;;;;;;;;;;0.30;99.90;;;;;;5046454;28;19970;-36
2023/04/03 05:55:25;;;;;;;;;;;0.30;99.90;;;;;;5043113;28;19929;-36
2023/04/03 05:57:51;;;;;;;;;;;0.30;99.90;;;;;;5032701;28;19933;-36
2023/04/03 06:00:19;;;;;;;;;;;0.40;99.90;;;;;;5031796;28;20038;-35
2023/04/03 06:02:45;;;;;;;;;;;0.40;99.90;;;;;;5050294;28;19940;-35
2023/04/03 06:05:13;;;;;;;;;;;0.40;99.90;;;;;;5049118;28;20372;-35
2023/04/03 06:07:41;;;;;;;;;;;0.50;99.90;;;;;;5024865;28;19929;-35
2023/04/03 06:10:08;;;;;;;;;;;0.50;99.90;;;;;;5052215;28;19933;-35
2023/04/03 06:12:35;;;;;;;;;;;0.60;99.90;;;;;;5035530;28;19990;-36
2023/04/03 06:15:02;;;;;;;;;;;0.60;99.90;;;;;;5053186;28;20347;-35
2023/04/03 06:17:29;;;;;;;;;;;0.70;99.90;;;;;;5030446;28;19936;-36
2023/04/03 06:19:58;;;;;;;;;;;0.80;99.90;;;;;;5051692;28;19933;-35
2023/04/03 06:22:25;;;;;;;;;;;0.90;99.90;;;;;;5051956;28;20458;-36
2023/04/03 06:24:53;;;;;;;;;;;0.90;99.90;;;;;;5035004;28;19932;-36
2023/04/03 06:27:20;;;;;;;;;;;1.00;99.90;;;;;;5052930;28;19940;-36
2023/04/03 06:29:47;;;;;;;;;;;1.20;99.90;;;;;;5053634;28;19924;-35
2023/04/03 06:32:14;;;;;;;;;;;1.20;99.90;;;;;;5053800;28;19931;-36
2023/04/03 06:34:41;;;;;;;;;;;1.30;99.90;;;;;;5034965;28;20447;-36
2023/04/03 06:37:08;;;;;;;;;;;1.40;99.90;;;;;;5053602;28;19931;-35
2023/04/03 06:39:34;;;;;;;;;;;1.50;99.90;;;;;;5035888;28;19928;-35
2023/04/03 06:42:02;;;;;;;;;;;1.60;99.90;;;;;;5035804;28;19929;-35
2023/04/03 06:44:33;;;;;;;;;;;1.70;99.90;;;;;;5036049;28;19968;-37
2023/04/03 06:47:00;;;;;;;;;;;1.80;99.90;;;;;;5053447;28;19925;-36
2023/04/03 06:49:27;;;;;;;;;;;1.90;99.90;;;;;;5035215;28;20280;-36
2023/04/03 06:51:54;;;;;;;;;;;2.00;99.90;;;;;;5034784;28;19987;-37
2023/04/03 06:54:21;;;;;;;;;;;2.10;99.90;;;;;;5051663;28;19924;-36
2023/04/03 06:56:47;;;;;;;;;;;2.20;99.90;;;;;;5028185;28;19939;-37
2023/04/03 06:59:15;;;;;;;;;;;2.30;99.90;;;;;;5044862;28;19959;-37
2023/04/03 07:01:42;;;;;;;;;;;2.40;99.90;;;;;;5034547;28;19982;-37
2023/04/03 07:04:09;;;;;;;;;;;2.50;99.90;;;;;;5052850;28;19928;-37
2023/04/03 07:06:36;;;;;;;;;;;2.60;99.90;;;;;;5035339;28;19924;-37
2023/04/03 07:09:02;;;;;;;;;;;2.70;99.90;;;;;;5034828;28;20335;-36
2023/04/03 07:11:32;;;;;;;;;;;2.80;99.90;;;;;;5034852;28;20015;-36
2023/04/03 07:13:59;;;;;;;;;;;2.90;99.90;;;;;;5052657;28;19929;-35
2023/04/03 07:16:27;;;;;;;;;;;3.00;99.90;;;;;;5052005;28;19928;-36
2023/04/03 07:18:53;;;;;;;;;;;3.10;99.90;;;;;;5034712;28;19925;-36
2023/04/03 07:21:20;;;;;;;;;;;3.20;99.90;;;;;;5052619;28;20465;-35
2023/04/03 07:23:47;;;;;;;;;;;3.30;99.90;;;;;;5034075;28;20378;-36
2023/04/03 07:26:13;;;;;;;;;;;3.40;99.90;;;;;;5035193;28;20493;-35
2023/04/03 07:28:41;;;;;;;;;;;3.50;99.90;;;;;;5035270;28;19971;-35
2023/04/03 07:31:10;;;;;;;;;;;3.60;99.90;;;;;;5052593;28;19955;-35
2023/04/03 07:33:38;;;;;;;;;;;3.70;99.90;;;;;;5052580;28;19924;-35
2023/04/03 07:36:07;;;;;;;;;;;3.80;99.90;;;;;;5051490;28;20443;-35
2023/04/03 07:38:33;;;;;;;;;;;3.80;99.90;;;;;;5052355;28;20033;-35
2023/04/03 07:41:00;;;;;;;;;;;4.00;99.90;;;;;;5052487;28;19929;-35
2023/04/03 07:43:27;;;;;;;;;;;4.00;99.90;;;;;;5052569;28;19925;-35
2023/04/03 07:45:54;;;;;;;;;;;4.10;99.90;;;;;;5052054;28;19925;-35
2023/04/03 07:48:20;;;;;;;;;;;4.20;99.90;;;;;;5052368;28;19932;-35
2023/04/03 07:50:48;;;;;;;;;;;4.30;99.90;;;;;;5052185;28;20025;-34
2023/04/03 07:53:15;;;;;;;;;;;4.40;99.90;;;;;;5034209;28;19929;-35
2023/04/03 07:55:43;;;;;;;;;;;4.60;99.90;;;;;;5037724;28;20323;-35
2023/04/03 07:58:10;;;;;;;;;;;4.70;99.90;;;;;;5063460;28;19979;-36
2023/04/03 08:00:37;;;;;;;;;;;4.90;99.90;;;;;;5034226;28;20019;-36
2023/04/03 08:03:03;;;;;;;;;;;5.00;99.90;;;;;;5034549;28;19986;-36
2023/04/03 08:05:30;;;;;;;;;;;5.20;99.90;;;;;;5052063;28;20397;-35
2023/04/03 08:07:58;;;;;;;;;;;5.30;99.90;;;;;;5051127;28;19972;-36
2023/04/03 08:10:25;;;;;;;;;;;5.50;99.90;;;;;;5051749;28;19925;-35
2023/04/03 08:12:52;;;;;;;;;;;5.60;99.90;;;;;;5052209;28;19994;-35
2023/04/03 08:15:18;;;;;;;;;;;5.70;99.90;;;;;;5051933;28;19932;-35
2023/04/03 08:17:45;;;;;;;;;;;5.80;99.90;;;;;;5034409;28;19929;-35
2023/04/03 08:20:12;;;;;;;;;;;5.90;99.90;;;;;;5051040;28;19933;-35
2023/04/03 08:22:39;;;;;;;;;;;6.00;99.90;;;;;;5051165;28;20007;-36
2023/04/03 08:25:07;;;;;;;;;;;6.10;99.90;;;;;;5051405;28;19982;-35
2023/04/03 08:27:34;;;;;;;;;;;6.20;99.90;;;;;;5033578;28;19932;-35
2023/04/03 08:30:01;;;;;;;;;;;6.20;98.30;;;;;;5033941;28;19971;-35
2023/04/03 08:32:27;;;;;;;;;;;6.30;99.80;;;;;;5054923;28;20319;-35
2023/04/03 08:34:54;;;;;;;;;;;6.30;98.90;;;;;;5055540;28;19925;-36
2023/04/03 08:37:21;;;;;;;;;;;6.30;99.40;;;;;;5055683;28;19968;-35
2023/04/03 08:39:48;;;;;;;;;;;6.50;99.90;;;;;;5055724;28;20030;-34
2023/04/03 08:42:17;;;;;;;;;;;6.60;99.90;;;;;;5055629;28;20011;-33
2023/04/03 08:44:46;;;;;;;;;;;6.80;99.70;;;;;;5055633;28;20365;-35
2023/04/03 08:47:16;;;;;;;;;;;6.90;97.60;;;;;;5054953;28;19936;-35
2023/04/03 08:49:46;;;;;;;;;;;7.00;97.40;;;;;;5035100;28;19933;-35
2023/04/03 08:52:14;;;;;;;;;;;7.00;95.30;;;;;;5055021;28;19932;-35
2023/04/03 08:54:42;;;;;;;;;;;7.00;96.30;;;;;;5055042;28;19929;-35
2023/04/03 08:57:10;;;;;;;;;;;7.10;94.90;;;;;;5059114;28;20395;-35
2023/04/03 08:59:38;;;;;;;;;;;7.20;94.90;;;;;;5037502;28;19978;-35
2023/04/03 09:02:13;;;;;;;;;;;7.20;93.70;;;;;;5055382;28;20399;-35
2023/04/03 09:04:40;;;;;;;;;;;7.30;91.40;;;;;;5055113;28;19925;-35
2023/04/03 09:07:08;;;;;;;;;;;7.30;92.80;;;;;;5037642;28;19929;-35
2023/04/03 09:09:36;;;;;;;;;;;7.40;92.60;;;;;;5036310;28;19924;-35
2023/04/03 09:12:09;;;;;;;;;;;7.60;91.80;;;;;;5055112;28;20105;-35
2023/04/03 09:14:39;;;;;;;;;;;7.60;92.40;;;;;;5037404;28;19978;-35
2023/04/03 09:17:08;;;;;;;;;;;7.80;92.80;;;;;;5037293;28;19932;-34
2023/04/03 09:19:36;;;;;;;;;;;7.90;90.00;;;;;;5054945;28;19929;-36
2023/04/03 09:22:04;;;;;;;;;;;7.90;91.40;;;;;;5055045;28;19924;-35
2023/04/03 09:24:30;;;;;;;;;;;8.00;89.60;;;;;;5037369;28;20021;-39
2023/04/03 09:26:59;;;;;;;;;;;8.10;90.00;;;;;;5054687;28;19925;-36
2023/04/03 09:29:26;;;;;;;;;;;8.10;81.90;;;;;;5053667;28;20015;-35
2023/04/03 09:31:56;;;;;;;;;;;8.20;87.30;;;;;;5053331;28;20192;-35
2023/04/03 09:34:23;;;;;;;;;;;8.40;85.20;;;;;;5054469;28;19971;-36
2023/04/03 09:36:51;;;;;;;;;;;8.50;83.50;;;;;;5037285;28;19928;-35
2023/04/03 09:39:18;;;;;;;;;;;8.50;80.90;;;;;;5054653;28;20438;-35
2023/04/03 09:41:55;;;;;;;;;;;8.60;80.20;;;;;;5036062;28;20378;-36
2023/04/03 09:44:22;;;;;;;;;;;8.60;79.80;;;;;;5033799;28;20300;-35
2023/04/03 09:46:49;;;;;;;;;;;8.70;81.40;;;;;;5037186;28;20438;-36
2023/04/03 09:49:17;;;;;;;;;;;8.80;75.10;;;;;;5054783;28;20296;-35
2023/04/03 09:51:45;;;;;;;;;;;9.00;74.50;;;;;;5054470;28;20470;-35
2023/04/03 09:54:31;;;;;;;;;;;9.00;72.10;;;;;;5036657;28;19978;-36
2023/04/03 09:56:58;;;;;;;;;;;9.10;74.00;;;;;;5054418;28;19983;-35
2023/04/03 09:59:25;;;;;;;;;;;9.20;69.10;;;;;;5036722;28;19990;-35
2023/04/03 10:01:57;;;;;;;;;;;9.40;67.80;;;;;;5037045;28;19924;-35
2023/04/03 10:04:25;;;;;;;;;;;9.40;67.30;;;;;;5052931;28;19924;-36
2023/04/03 10:06:53;;;;;;;;;;;9.50;67.90;;;;;;5054250;28;19929;-35
2023/04/03 10:09:20;;;;;;;;;;;9.50;65.40;;;;;;5036015;28;19978;-35
2023/04/03 10:12:01;;;;;;;;;;;9.50;68.80;;;;;;5036491;28;20027;-36
2023/04/03 10:14:27;;;;;;;;;;;9.70;71.90;;;;;;5054132;28;19925;-34
2023/04/03 10:16:56;;;;;;;;;;;9.90;70.20;;;;;;5054414;28;19925;-34
2023/04/03 10:19:32;;;;;;;;;;;9.90;66.20;;;;;;5036239;28;19975;-35
2023/04/03 10:22:00;;;;;;;;;;;9.90;65.70;;;;;;5036314;28;19925;-36
2023/04/03 10:24:29;;;;;;;;;;;10.00;67.60;;;;;;5052034;28;19932;-35
2023/04/03 10:26:57;;;;;;;;;;;10.00;67.70;;;;;;5053978;28;19978;-34
2023/04/03 10:29:29;;;;;;;;;;;10.20;67.20;;;;;;5071721;28;20323;-34
2023/04/03 10:31:58;;;;;;;;;;;10.30;67.00;;;;;;5056120;28;20019;-35
2023/04/03 10:34:25;;;;;;;;;;;10.30;61.10;;;;;;5063769;28;19970;-34
2023/04/03 10:36:54;;;;;;;;;;;10.20;62.30;;;;;;5035971;28;19925;-34
2023/04/03 10:39:23;;;;;;;;;;;10.30;65.40;;;;;;5035594;28;20025;-35
2023/04/03 10:41:53;;;;;;;;;;;10.30;64.30;;;;;;5053541;28;19987;-35
2023/04/03 10:44:21;;;;;;;;;;;10.40;62.90;;;;;;5052937;28;19932;-36
2023/04/03 10:46:49;;;;;;;;;;;10.40;60.00;;;;;;5050365;28;19925;-37
2023/04/03 10:49:22;;;;;;;;;;;10.30;63.10;;;;;;5041324;28;19929;-35
2023/04/03 10:51:49;;;;;;;;;;;10.40;60.20;;;;;;5030933;28;19928;-35
2023/04/03 10:54:18;;;;;;;;;;;10.40;61.80;;;;;;5051536;28;19928;-34
2023/04/03 10:56:45;;;;;;;;;;;10.40;61.00;;;;;;5035222;28;19925;-35
2023/04/03 10:59:20;;;;;;;;;;;10.50;62.80;;;;;;5035212;28;19925;-35
2023/04/03 11:01:47;;;;;;;;;;;10.60;62.50;;;;;;5035444;28;19982;-35
2023/04/03 11:04:14;;;;;;;;;;;10.70;59.70;;;;;;5051876;28;19986;-35
2023/04/03 11:06:42;;;;;;;;;;;10.70;59.00;;;;;;5050865;28;19929;-35
2023/04/03 11:09:11;;;;;;;;;;;10.70;62.40;;;;;;5052338;28;19925;-35
2023/04/03 11:11:40;;;;;;;;;;;10.90;61.80;;;;;;5052094;28;19932;-36
2023/04/03 11:14:10;;;;;;;;;;;10.90;59.70;;;;;;5034914;28;19956;-35
2023/04/03 11:16:37;;;;;;;;;;;10.80;59.90;;;;;;5052035;28;20377;-36
2023/04/03 11:19:04;;;;;;;;;;;10.90;60.80;;;;;;5033832;28;19932;-35
2023/04/03 11:21:34;;;;;;;;;;;11.00;61.90;;;;;;5032760;28;19982;-35
2023/04/03 11:24:01;;;;;;;;;;;11.20;61.10;;;;;;5050369;28;19932;-35
2023/04/03 11:26:28;;;;;;;;;;;11.20;58.20;;;;;;5033989;28;19925;-36
2023/04/03 11:28:57;;;;;;;;;;;11.20;57.80;;;;;;5034808;28;19928;-36
2023/04/03 11:31:27;;;;;;;;;;;11.20;61.10;;;;;;5050944;28;19925;-36
2023/04/03 11:33:56;;;;;;;;;;;11.30;59.20;;;;;;5031219;28;19939;-35
2023/04/03 11:36:24;;;;;;;;;;;11.40;58.20;;;;;;5032629;28;20026;-36
2023/04/03 11:38:52;;;;;;;;;;;11.40;56.40;;;;;;5048568;28;19970;-35
2023/04/03 11:41:20;;;;;;;;;;;11.50;55.90;;;;;;5049904;28;19935;-34
2023/04/03 11:43:57;;;;;;;;;;;11.50;59.50;;;;;;5032839;28;20351;-35
2023/04/03 11:46:24;;;;;;;;;;;11.60;54.30;;;;;;5032442;28;19932;-35
2023/04/03 11:48:52;;;;;;;;;;;11.60;54.70;;;;;;5051615;28;19932;-35
2023/04/03 11:51:35;;;;;;;;;;;11.60;56.10;;;;;;5050382;28;19929;-35
2023/04/03 11:54:17;;;;;;;;;;;11.70;56.90;;;;;;5022392;28;20361;-35
2023/04/03 11:56:43;;;;;;;;;;;11.90;56.40;;;;;;5032204;28;19932;-35
2023/04/03 11:59:22;;;;;;;;;;;11.90;57.60;;;;;;5033815;28;19925;-35
2023/04/03 12:01:49;;;;;;;;;;;11.80;55.20;;;;;;5051239;28;19999;-36
2023/04/03 12:04:16;;;;;;;;;;;11.80;57.80;;;;;;5034314;28;19925;-35
2023/04/03 12:06:58;;;;;;;;;;;11.80;57.70;;;;;;5039065;28;19925;-36
2023/04/03 12:09:33;;;;;;;;;;;11.90;57.20;;;;;;5027426;28;19925;-36
2023/04/03 12:12:01;;;;;;;;;;;12.00;59.30;;;;;;5034179;28;19925;-35
2023/04/03 12:14:29;;;;;;;;;;;12.20;56.40;;;;;;5049276;28;20020;-34
2023/04/03 12:16:57;;;;;;;;;;;12.20;59.30;;;;;;5051685;28;19971;-35
2023/04/03 12:19:40;;;;;;;;;;;12.30;54.80;;;;;;5049776;28;20001;-36
2023/04/03 12:22:08;;;;;;;;;;;12.20;56.70;;;;;;5034343;28;20302;-35
2023/04/03 12:24:35;;;;;;;;;;;12.30;56.90;;;;;;5051528;28;19924;-35
2023/04/03 12:27:02;;;;;;;;;;;12.30;57.30;;;;;;5034585;28;19970;-35
2023/04/03 12:29:34;;;;;;;;;;;12.20;55.90;;;;;;5061008;28;20383;-35
2023/04/03 12:32:06;;;;;;;;;;;12.20;58.50;;;;;;5032636;28;19925;-36
2023/04/03 12:34:47;;;;;;;;;;;12.30;57.00;;;;;;5049806;28;19929;-35
2023/04/03 12:37:21;;;;;;;;;;;12.30;55.70;;;;;;5033236;28;20427;-35
2023/04/03 12:39:56;;;;;;;;;;;12.30;56.10;;;;;;5032845;28;20384;-35
2023/04/03 12:42:31;;;;;;;;;;;12.30;55.50;;;;;;5033054;28;19948;-35
2023/04/03 12:45:00;;;;;;;;;;;12.30;54.20;;;;;;5033037;28;19982;-36
2023/04/03 12:47:28;;;;;;;;;;;12.40;54.90;;;;;;5033275;28;19979;-35
2023/04/03 12:49:55;;;;;;;;;;;12.50;57.60;;;;;;5051752;28;20303;-35
2023/04/03 12:52:26;;;;;;;;;;;12.50;56.50;;;;;;5051842;28;19980;-35
2023/04/03 12:54:53;;;;;;;;;;;12.60;53.80;;;;;;5026478;28;19925;-35
2023/04/03 12:57:20;;;;;;;;;;;12.60;57.00;;;;;;5050831;28;19971;-35
2023/04/03 12:59:47;;;;;;;;;;;12.70;58.00;;;;;;5049719;28;20356;-35
2023/04/03 13:02:20;;;;;;;;;;;12.80;56.50;;;;;;5032623;28;19925;-35
2023/04/03 13:04:47;;;;;;;;;;;12.90;54.10;;;;;;5048092;28;19924;-36
2023/04/03 13:07:21;;;;;;;;;;;12.80;56.30;;;;;;5041928;28;20305;-35
2023/04/03 13:09:55;;;;;;;;;;;12.80;56.10;;;;;;5029024;28;19933;-35
2023/04/03 13:12:22;;;;;;;;;;;12.80;55.80;;;;;;5032816;28;20376;-35
2023/04/03 13:14:52;;;;;;;;;;;12.60;54.20;;;;;;5051166;28;19928;-36
2023/04/03 13:17:21;;;;;;;;;;;12.40;52.80;;;;;;5033582;28;19933;-36
2023/04/03 13:19:47;;;;;;;;;;;12.30;55.10;;;;;;5054779;28;19947;-35
2023/04/03 13:22:19;;;;;;;;;;;12.30;53.80;;;;;;5054288;28;19924;-35
2023/04/03 13:24:46;;;;;;;;;;;12.30;56.40;;;;;;5036918;28;19925;-34
2023/04/03 13:27:12;;;;;;;;;;;12.40;54.20;;;;;;5054756;28;19979;-35
2023/04/03 13:29:39;;;;;;;;;;;12.50;56.10;;;;;;5038725;28;20343;-34
2023/04/03 13:32:06;;;;;;;;;;;12.50;55.00;;;;;;5053904;28;20011;-34
2023/04/03 13:34:38;;;;;;;;;;;12.60;55.40;;;;;;5049377;28;20030;-35
2023/04/03 13:37:05;;;;;;;;;;;12.70;56.50;;;;;;5054082;28;20002;-36
2023/04/03 13:39:32;;;;;;;;;;;12.70;56.50;;;;;;5036549;28;19932;-35
2023/04/03 13:41:59;;;;;;;;;;;12.80;55.20;;;;;;5036660;28;20276;-34
2023/04/03 13:44:30;;;;;;;;;;;12.80;55.10;;;;;;5053452;28;19925;-34
2023/04/03 13:46:57;;;;;;;;;;;13.00;57.40;;;;;;5036990;28;19932;-35
2023/04/03 13:49:30;;;;;;;;;;;13.10;56.10;;;;;;5054343;28;20327;-36
2023/04/03 13:51:58;;;;;;;;;;;13.20;55.00;;;;;;5036189;28;20438;-35
2023/04/03 13:54:25;;;;;;;;;;;13.10;54.80;;;;;;5053307;28;19975;-35
2023/04/03 13:56:53;;;;;;;;;;;13.10;52.30;;;;;;5053530;28;20304;-34
2023/04/03 13:59:22;;;;;;;;;;;13.10;54.80;;;;;;5036405;28;19979;-36
2023/04/03 14:01:49;;;;;;;;;;;13.10;52.90;;;;;;5034297;28;19925;-35
2023/04/03 14:04:17;;;;;;;;;;;12.90;51.80;;;;;;5034679;28;19925;-34
2023/04/03 14:06:44;;;;;;;;;;;12.90;54.40;;;;;;5054059;28;19925;-35
2023/04/03 14:09:12;;;;;;;;;;;12.70;52.30;;;;;;5034885;28;20039;-34
2023/04/03 14:11:39;;;;;;;;;;;12.50;51.10;;;;;;5036178;28;20336;-35
2023/04/03 14:14:07;;;;;;;;;;;12.50;53.60;;;;;;5034476;28;19925;-36
2023/04/03 14:16:34;;;;;;;;;;;12.50;56.10;;;;;;5050935;28;19933;-35
2023/04/03 14:19:01;;;;;;;;;;;12.70;55.60;;;;;;5051607;28;20291;-33
2023/04/03 14:21:27;;;;;;;;;;;12.70;52.60;;;;;;5051977;28;19925;-33
2023/04/03 14:23:54;;;;;;;;;;;12.70;52.40;;;;;;5050455;28;19928;-35
2023/04/03 14:26:23;;;;;;;;;;;12.60;50.50;;;;;;5035897;28;19998;-34
2023/04/03 14:28:50;;;;;;;;;;;12.40;51.20;;;;;;5035327;28;19971;-34
2023/04/03 14:31:17;;;;;;;;;;;12.40;54.00;;;;;;5034429;28;20380;-34